Time;durP1;ratioP1;P1;durP2;ratioP2;P2;SDS_P1;SDS_P2;PMS_P1;PMS_P2;Temp;Humidity;BMP_temperature;BMP_pressure;BME280_temperature;BME280_humidity;BME280_pressure;Samples;Min_cycle;Max_cycle;Signal;HPM_P1;HPM_P2
2021/11/03 00:01:18;;;;;;;2.67;1.20;;;;;;;7.32;71.70;94564.59;5101695;28;20071;-46
2021/11/03 00:03:48;;;;;;;3.05;1.38;;;;;;;7.36;71.24;94557.41;5087605;28;20523;-47
2021/11/03 00:06:18;;;;;;;2.97;1.80;;;;;;;7.44;70.99;94556.44;5088587;28;20040;-47
2021/11/03 00:08:46;;;;;;;2.90;1.40;;;;;;;7.49;70.53;94553.50;5087385;28;20036;-51
2021/11/03 00:11:14;;;;;;;3.30;1.80;;;;;;;7.49;70.37;94556.97;5087283;28;20058;-52
2021/11/03 00:13:41;;;;;;;2.63;1.50;;;;;;;7.62;69.70;94563.06;5087742;28;20036;-54
2021/11/03 00:16:08;;;;;;;2.10;1.17;;;;;;;7.56;69.83;94567.13;5088972;28;20127;-47
2021/11/03 00:18:37;;;;;;;2.63;1.48;;;;;;;7.50;70.13;94563.91;5088305;28;20473;-47
2021/11/03 00:21:06;;;;;;;2.70;1.70;;;;;;;7.59;69.71;94552.97;5087489;28;20400;-50
2021/11/03 00:23:34;;;;;;;2.85;1.67;;;;;;;7.59;69.67;94552.22;5088376;28;20515;-55
2021/11/03 00:26:01;;;;;;;2.55;1.40;;;;;;;7.39;70.19;94552.09;5086412;28;20055;-46
2021/11/03 00:28:29;;;;;;;3.17;1.50;;;;;;;7.40;70.17;94545.59;5088715;28;20044;-53
2021/11/03 00:30:58;;;;;;;1.88;1.20;;;;;;;7.28;70.36;94532.22;5085569;28;20054;-52
2021/11/03 00:33:28;;;;;;;2.28;1.38;;;;;;;7.28;70.46;94523.34;5102256;28;20053;-50
2021/11/03 00:35:55;;;;;;;2.15;1.35;;;;;;;7.39;70.26;94524.41;5088333;28;20190;-52
2021/11/03 00:38:23;;;;;;;2.00;1.20;;;;;;;7.35;70.72;94515.47;5087063;28;20063;-50
2021/11/03 00:40:51;;;;;;;2.78;1.40;;;;;;;7.17;70.93;94507.72;5085163;28;20124;-53
2021/11/03 00:43:18;;;;;;;2.90;1.63;;;;;;;7.24;70.83;94505.19;5102639;28;20465;-53
2021/11/03 00:45:46;;;;;;;1.80;1.20;;;;;;;7.10;71.38;94490.63;5087869;28;20047;-51
2021/11/03 00:48:14;;;;;;;3.15;1.33;;;;;;;6.97;71.03;94487.22;5087239;28;20439;-51
2021/11/03 00:50:42;;;;;;;1.70;1.10;;;;;;;6.35;73.66;94484.00;5085644;28;20048;-54
2021/11/03 00:53:09;;;;;;;2.03;1.20;;;;;;;6.02;75.53;94473.44;5082586;28;20497;-53
2021/11/03 00:55:36;;;;;;;2.70;1.30;;;;;;;5.85;77.18;94479.81;5088232;28;20043;-53
2021/11/03 00:58:03;;;;;;;3.13;1.08;;;;;;;5.71;77.63;94476.69;5082907;28;20047;-46
2021/11/03 01:00:31;;;;;;;1.48;0.95;;;;;;;5.67;77.59;94470.44;5098432;28;20407;-53
2021/11/03 01:02:58;;;;;;;1.83;1.00;;;;;;;5.62;78.30;94471.41;5103456;28;20040;-52
2021/11/03 01:05:27;;;;;;;1.95;0.90;;;;;;;5.54;77.66;94475.00;5102697;28;20408;-47
2021/11/03 01:07:54;;;;;;;1.80;1.00;;;;;;;5.54;78.45;94472.31;5085767;28;20044;-47
2021/11/03 01:10:24;;;;;;;1.67;0.80;;;;;;;5.45;78.08;94477.78;5087812;28;20075;-53
2021/11/03 01:12:52;;;;;;;1.95;0.95;;;;;;;5.35;78.65;94475.56;5085127;28;20080;-55
2021/11/03 01:15:22;;;;;;;1.90;1.02;;;;;;;5.43;78.49;94476.56;5085718;28;20043;-51
2021/11/03 01:17:54;;;;;;;1.15;0.95;;;;;;;5.61;77.91;94475.22;5085940;28;20036;-53
2021/11/03 01:20:24;;;;;;;1.33;0.70;;;;;;;5.55;78.59;94468.53;5085557;28;20408;-54
2021/11/03 01:22:53;;;;;;;1.02;0.80;;;;;;;5.56;78.72;94470.09;5085441;28;20046;-53
2021/11/03 01:25:21;;;;;;;1.33;0.90;;;;;;;5.68;78.26;94472.75;5085049;28;20046;-53
2021/11/03 01:27:48;;;;;;;1.00;0.70;;;;;;;5.90;76.88;94470.75;5102254;28;20072;-52
2021/11/03 01:30:17;;;;;;;0.90;0.68;;;;;;;6.15;76.18;94474.97;5086729;28;20501;-51
2021/11/03 01:32:45;;;;;;;1.40;1.05;;;;;;;6.18;76.06;94476.22;5102112;28;20423;-52
2021/11/03 01:35:14;;;;;;;1.52;0.70;;;;;;;5.81;76.58;94471.63;5086477;28;20075;-53
2021/11/03 01:37:41;;;;;;;1.27;0.80;;;;;;;5.60;77.21;94477.13;5086031;28;20040;-53
2021/11/03 01:40:11;;;;;;;1.63;0.73;;;;;;;5.64;78.00;94471.88;5086125;28;20043;-51
2021/11/03 01:42:39;;;;;;;1.10;0.70;;;;;;;5.57;78.25;94471.66;5085567;28;20071;-51
2021/11/03 01:45:08;;;;;;;1.65;0.75;;;;;;;5.88;76.82;94460.31;5084665;28;20094;-51
2021/11/03 01:47:39;;;;;;;0.75;0.65;;;;;;;6.11;75.43;94458.00;5102061;28;20047;-54
2021/11/03 01:50:30;;;;;;;1.00;0.63;;;;;;;5.78;76.35;94450.84;5086323;28;20122;-51
2021/11/03 01:53:13;;;;;;;1.20;0.80;;;;;;;5.51;77.80;94449.63;5082714;28;20068;-48
2021/11/03 01:55:48;;;;;;;1.70;0.70;;;;;;;5.49;78.64;94443.84;5102832;28;20490;-49
2021/11/03 01:58:19;;;;;;;1.65;0.63;;;;;;;5.82;77.40;94438.31;5086691;28;20043;-50
2021/11/03 02:00:50;;;;;;;0.90;0.60;;;;;;;5.52;77.26;94440.47;5086270;28;20101;-50
2021/11/03 02:03:22;;;;;;;2.05;0.80;;;;;;;5.69;78.23;94430.59;5084028;28;20420;-50
2021/11/03 02:05:56;;;;;;;1.75;0.68;;;;;;;5.96;76.59;94432.63;5086264;28;20044;-51
2021/11/03 02:08:23;;;;;;;1.55;0.73;;;;;;;6.30;74.53;94427.81;5086104;28;20535;-51
2021/11/03 02:10:50;;;;;;;1.38;0.70;;;;;;;6.52;73.63;94421.91;5084088;28;20413;-50
2021/11/03 02:13:18;;;;;;;0.80;0.60;;;;;;;6.57;72.85;94409.38;5084555;28;20044;-49
2021/11/03 02:15:45;;;;;;;2.15;0.82;;;;;;;6.65;72.43;94403.81;5087249;28;20758;-51
2021/11/03 02:18:15;;;;;;;0.73;0.70;;;;;;;6.68;72.66;94397.75;5087289;28;20043;-51
2021/11/03 02:20:47;;;;;;;1.38;0.73;;;;;;;6.66;72.50;94388.47;5086301;28;20070;-52
2021/11/03 02:23:16;;;;;;;2.05;0.60;;;;;;;6.72;71.79;94393.25;5086174;28;20087;-52
2021/11/03 02:25:51;;;;;;;1.35;0.70;;;;;;;6.89;71.53;94392.16;5086232;28;20079;-54
2021/11/03 02:28:19;;;;;;;1.33;0.80;;;;;;;6.88;71.00;94379.03;5085123;28;20036;-50
2021/11/03 02:30:46;;;;;;;1.20;0.63;;;;;;;6.72;71.20;94384.41;5087481;28;20112;-52
2021/11/03 02:33:21;;;;;;;0.90;0.60;;;;;;;6.45;73.06;94386.00;5102237;28;20098;-53
2021/11/03 02:35:57;;;;;;;3.50;0.80;;;;;;;6.71;71.90;94380.16;5090490;28;20127;-53
2021/11/03 02:38:28;;;;;;;;;;;;;;;6.79;71.60;94388.06;5088638;28;20036;-53
2021/11/03 02:41:01;;;;;;;1.02;0.70;;;;;;;6.88;71.16;94384.41;5090512;28;19927;-50
2021/11/03 02:43:38;;;;;;;1.10;0.75;;;;;;;6.89;70.80;94372.53;5088424;28;20036;-51
2021/11/03 02:46:05;;;;;;;1.08;0.70;;;;;;;7.06;69.98;94369.50;5089264;28;20074;-54
2021/11/03 02:48:35;;;;;;;1.98;0.80;;;;;;;6.71;70.96;94367.50;5089744;28;20032;-51
2021/11/03 02:51:11;;;;;;;1.23;0.80;;;;;;;6.86;71.00;94367.84;5085911;28;20056;-48
2021/11/03 02:53:42;;;;;;;1.50;0.90;;;;;;;6.85;70.70;94358.22;5086435;28;20594;-47
2021/11/03 02:56:10;;;;;;;1.65;0.80;;;;;;;6.79;70.72;94363.88;5087842;28;20037;-51
2021/11/03 02:58:39;;;;;;;1.40;0.80;;;;;;;5.85;74.37;94350.97;5103283;28;20058;-50
2021/11/03 03:01:20;;;;;;;1.42;0.80;;;;;;;5.55;76.57;94350.47;5088762;28;20040;-51
2021/11/03 03:03:48;;;;;;;1.23;0.60;;;;;;;5.95;74.63;94352.44;5089692;28;20118;-51
2021/11/03 03:06:23;;;;;;;1.45;0.82;;;;;;;5.41;77.23;94353.53;5089239;28;20036;-51
2021/11/03 03:08:53;;;;;;;1.52;0.80;;;;;;;4.93;78.92;94347.84;5089751;28;20086;-50
2021/11/03 03:11:23;;;;;;;1.45;0.90;;;;;;;4.71;80.37;94340.22;5087787;28;20036;-51
2021/11/03 03:13:50;;;;;;;1.27;0.90;;;;;;;4.59;81.16;94326.84;5086148;28;20060;-52
2021/11/03 03:16:19;;;;;;;1.50;0.90;;;;;;;4.45;82.27;94319.91;5106670;28;20119;-51
2021/11/03 03:18:48;;;;;;;1.08;0.90;;;;;;;4.36;82.88;94310.41;5088531;28;20048;-50
2021/11/03 03:21:17;;;;;;;1.63;1.10;;;;;;;4.20;83.30;94294.19;5088891;28;20040;-48
2021/11/03 03:23:48;;;;;;;3.45;1.20;;;;;;;4.08;84.09;94302.19;5103210;28;20062;-50
2021/11/03 03:26:17;;;;;;;2.65;1.15;;;;;;;4.08;84.36;94302.97;5088535;28;20040;-50
2021/11/03 03:28:45;;;;;;;2.13;1.15;;;;;;;4.09;84.60;94301.84;5088807;28;20036;-49
2021/11/03 03:31:13;;;;;;;1.50;1.05;;;;;;;4.13;84.58;94310.03;5070206;28;20044;-51
2021/11/03 03:33:47;;;;;;;2.78;1.33;;;;;;;4.10;84.57;94313.38;5088242;28;20043;-50
2021/11/03 03:36:17;;;;;;;1.90;1.20;;;;;;;4.19;84.32;94308.69;5088378;28;20044;-50
2021/11/03 03:38:45;;;;;;;1.80;1.10;;;;;;;4.17;83.92;94316.28;5088134;28;20061;-48
2021/11/03 03:41:13;;;;;;;2.15;1.60;;;;;;;4.18;84.17;94317.81;5088656;28;20089;-48
2021/11/03 03:43:41;;;;;;;1.73;1.10;;;;;;;4.27;83.69;94323.09;5102741;28;20142;-51
2021/11/03 03:46:09;;;;;;;1.42;1.10;;;;;;;4.34;83.17;94329.47;5106106;28;20607;-52
2021/11/03 03:48:38;;;;;;;1.95;1.20;;;;;;;4.37;83.20;94330.72;5088030;28;20052;-49
2021/11/03 03:51:06;;;;;;;1.92;1.10;;;;;;;4.38;82.98;94337.63;5087975;28;20477;-48
2021/11/03 03:53:35;;;;;;;1.95;1.30;;;;;;;4.61;82.13;94327.28;5104735;28;20048;-53
2021/11/03 03:56:13;;;;;;;2.10;1.50;;;;;;;4.95;80.70;94328.00;5087921;28;20044;-51
2021/11/03 03:58:42;;;;;;;2.97;1.40;;;;;;;5.19;79.07;94322.59;5088475;28;20051;-52
2021/11/03 04:01:13;;;;;;;2.67;1.40;;;;;;;4.85;80.46;94323.84;5087069;28;20446;-52
2021/11/03 04:03:42;;;;;;;2.75;1.40;;;;;;;4.63;81.26;94312.44;5086658;28;20028;-49
2021/11/03 04:06:12;;;;;;;3.08;1.40;;;;;;;4.39;82.59;94313.19;5087607;28;20052;-51
2021/11/03 04:08:40;;;;;;;2.60;1.50;;;;;;;4.28;82.92;94322.75;5071317;28;20101;-54
2021/11/03 04:11:08;;;;;;;2.40;1.38;;;;;;;4.22;83.23;94318.72;5087066;28;20528;-50
2021/11/03 04:13:38;;;;;;;4.68;1.70;;;;;;;4.10;83.78;94322.16;5086555;28;20510;-54
2021/11/03 04:16:07;;;;;;;3.42;1.60;;;;;;;4.02;84.46;94322.25;5087867;28;20039;-55
2021/11/03 04:18:35;;;;;;;2.20;1.50;;;;;;;3.96;84.88;94317.13;5087610;28;20040;-53
2021/11/03 04:21:02;;;;;;;2.60;1.80;;;;;;;3.95;85.04;94310.19;5104404;28;20040;-51
2021/11/03 04:23:31;;;;;;;2.75;1.65;;;;;;;3.99;85.19;94315.66;5087601;28;20067;-54
2021/11/03 04:25:58;;;;;;;3.13;2.10;;;;;;;3.99;85.26;94313.75;5087007;28;20521;-51
2021/11/03 04:28:26;;;;;;;2.75;1.80;;;;;;;3.92;85.72;94310.84;5086961;28;20058;-53
2021/11/03 04:30:53;;;;;;;2.65;1.80;;;;;;;3.92;85.92;94302.81;5070306;28;20040;-52
2021/11/03 04:33:20;;;;;;;3.08;1.92;;;;;;;3.95;86.22;94306.72;5087740;28;20095;-52
2021/11/03 04:35:49;;;;;;;4.25;2.33;;;;;;;3.92;86.14;94297.47;5086950;28;20044;-55
2021/11/03 04:38:17;;;;;;;4.72;2.38;;;;;;;3.96;86.20;94292.22;5086682;28;20040;-55
2021/11/03 04:40:45;;;;;;;4.07;2.35;;;;;;;3.99;86.55;94287.00;5087660;28;20478;-53
2021/11/03 04:43:12;;;;;;;4.90;2.78;;;;;;;4.04;86.49;94285.25;5086326;28;20044;-51
2021/11/03 04:45:39;;;;;;;4.43;2.28;;;;;;;3.97;86.65;94278.53;5087872;28;20040;-49
2021/11/03 04:48:07;;;;;;;4.25;2.80;;;;;;;4.00;86.43;94279.78;5083764;28;20075;-50
2021/11/03 04:50:34;;;;;;;4.63;2.60;;;;;;;4.10;86.42;94279.34;5086516;28;20036;-51
2021/11/03 04:53:02;;;;;;;4.40;3.00;;;;;;;4.05;86.40;94270.75;5086058;28;20123;-54
2021/11/03 04:55:32;;;;;;;3.85;2.55;;;;;;;4.08;86.67;94280.78;5086363;28;20082;-53
2021/11/03 04:58:00;;;;;;;3.85;2.65;;;;;;;4.10;86.90;94274.00;5085163;28;20127;-48
2021/11/03 05:00:29;;;;;;;4.40;2.65;;;;;;;4.31;85.81;94265.09;5085714;28;20471;-51
2021/11/03 05:02:59;;;;;;;4.75;2.95;;;;;;;4.40;85.70;94266.56;5084410;28;20052;-48
2021/11/03 05:05:27;;;;;;;3.90;2.70;;;;;;;4.29;85.84;94262.75;5086349;28;20036;-50
2021/11/03 05:07:54;;;;;;;4.15;2.78;;;;;;;4.21;86.10;94255.59;5087132;28;20090;-48
2021/11/03 05:10:23;;;;;;;4.95;2.97;;;;;;;4.16;86.71;94253.13;5087422;28;20089;-48
2021/11/03 05:12:53;;;;;;;4.43;3.20;;;;;;;4.16;86.89;94263.84;5085213;28;20047;-52
2021/11/03 05:15:20;;;;;;;5.28;3.08;;;;;;;4.16;86.92;94253.94;5052175;28;20044;-51
2021/11/03 05:17:48;;;;;;;6.18;3.17;;;;;;;4.25;86.64;94255.72;5086716;28;20048;-51
2021/11/03 05:20:18;;;;;;;5.88;3.38;;;;;;;4.14;86.93;94252.69;5086576;28;20361;-51
2021/11/03 05:22:47;;;;;;;5.57;3.08;;;;;;;4.16;87.16;94245.09;5084666;28;20052;-50
2021/11/03 05:25:20;;;;;;;5.93;3.65;;;;;;;4.11;87.10;94245.34;5087109;28;20274;-52
2021/11/03 05:27:48;;;;;;;5.57;3.35;;;;;;;4.14;87.36;94252.69;5085311;28;20059;-49
2021/11/03 05:30:16;;;;;;;5.07;2.60;;;;;;;4.13;87.42;94246.56;5088013;28;20054;-50
2021/11/03 05:32:43;;;;;;;4.40;2.88;;;;;;;4.19;87.07;94249.78;5086712;28;20174;-50
2021/11/03 05:35:10;;;;;;;4.72;3.17;;;;;;;4.21;87.01;94253.69;5088394;28;20123;-51
2021/11/03 05:37:37;;;;;;;5.93;2.72;;;;;;;4.18;86.98;94248.22;5085921;28;20485;-48
2021/11/03 05:40:10;;;;;;;4.50;2.90;;;;;;;4.31;86.48;94252.50;5087428;28;20028;-50
2021/11/03 05:42:37;;;;;;;4.53;3.20;;;;;;;4.22;86.34;94249.94;5085268;28;20040;-49
2021/11/03 05:45:04;;;;;;;4.90;3.35;;;;;;;4.40;86.01;94249.72;5086874;28;20044;-51
2021/11/03 05:47:32;;;;;;;5.07;3.35;;;;;;;4.64;84.61;94246.25;5085917;28;20040;-47
2021/11/03 05:49:59;;;;;;;5.97;3.40;;;;;;;4.90;83.57;94252.03;5088664;28;20039;-52
2021/11/03 05:52:26;;;;;;;4.57;3.25;;;;;;;4.93;82.94;94248.69;5085406;28;20054;-49
2021/11/03 05:54:54;;;;;;;4.45;3.03;;;;;;;5.11;81.78;94241.19;5085788;28;20135;-47
2021/11/03 05:57:27;;;;;;;5.13;3.50;;;;;;;5.32;80.93;94235.66;5086244;28;20058;-49
2021/11/03 05:59:55;;;;;;;6.05;3.22;;;;;;;5.03;82.75;94244.75;5084189;28;20158;-49
2021/11/03 06:02:23;;;;;;;5.22;3.40;;;;;;;5.24;81.01;94246.53;5102111;28;20139;-48
2021/11/03 06:04:51;;;;;;;5.68;3.35;;;;;;;5.12;81.63;94239.28;5086251;28;20094;-51
2021/11/03 06:07:21;;;;;;;4.32;3.00;;;;;;;5.03;82.14;94239.41;5089720;28;20044;-53
2021/11/03 06:09:52;;;;;;;5.25;3.60;;;;;;;5.24;81.40;94238.47;5086381;28;20475;-50
2021/11/03 06:12:19;;;;;;;4.63;3.00;;;;;;;5.24;80.74;94236.56;5091608;28;20086;-53
2021/11/03 06:14:46;;;;;;;6.38;3.55;;;;;;;5.25;80.48;94240.03;5090986;28;20130;-51
2021/11/03 06:17:13;;;;;;;4.60;2.90;;;;;;;5.19;80.73;94226.06;5089975;28;20036;-51
2021/11/03 06:19:40;;;;;;;8.20;3.63;;;;;;;5.25;80.46;94230.09;5090943;28;20054;-52
2021/11/03 06:22:07;;;;;;;5.70;3.42;;;;;;;5.32;80.07;94222.25;5090950;28;20463;-51
2021/11/03 06:24:34;;;;;;;5.90;3.83;;;;;;;5.22;81.10;94220.03;5088740;28;20048;-55
2021/11/03 06:27:03;;;;;;;7.03;3.50;;;;;;;5.46;80.31;94221.88;5090345;28;20048;-52
2021/11/03 06:29:30;;;;;;;5.65;3.50;;;;;;;5.17;80.88;94220.28;5106139;28;20751;-51
2021/11/03 06:31:57;;;;;;;5.95;3.85;;;;;;;5.37;79.84;94221.22;5090576;28;20485;-51
2021/11/03 06:34:24;;;;;;;4.47;2.80;;;;;;;5.24;80.30;94233.91;5088420;28;20047;-53
2021/11/03 06:36:51;;;;;;;4.80;3.13;;;;;;;5.08;81.20;94230.34;5091226;28;20056;-52
2021/11/03 06:39:19;;;;;;;4.43;3.08;;;;;;;5.06;81.44;94232.59;5090841;28;20118;-51
2021/11/03 06:41:46;;;;;;;4.53;2.85;;;;;;;5.14;81.32;94223.66;5091217;28;20039;-52
2021/11/03 06:44:14;;;;;;;4.18;2.80;;;;;;;5.27;80.84;94217.13;5088998;28;20051;-51
2021/11/03 06:46:41;;;;;;;4.65;3.45;;;;;;;5.71;79.24;94221.75;5091674;28;20058;-51
2021/11/03 06:49:08;;;;;;;4.88;3.13;;;;;;;5.53;79.21;94214.03;5090416;28;20139;-48
2021/11/03 06:51:35;;;;;;;5.00;3.55;;;;;;;5.18;81.39;94224.53;5086055;28;20075;-51
2021/11/03 06:54:03;;;;;;;5.40;3.95;;;;;;;5.01;81.82;94220.22;5088881;28;20048;-46
2021/11/03 06:56:30;;;;;;;5.18;3.63;;;;;;;5.14;81.45;94213.69;5087680;28;20036;-50
2021/11/03 06:58:57;;;;;;;4.50;3.00;;;;;;;5.20;81.06;94211.56;5090340;28;20074;-50
2021/11/03 07:01:24;;;;;;;5.07;3.35;;;;;;;5.19;81.46;94212.66;5087877;28;20036;-47
2021/11/03 07:03:52;;;;;;;4.57;3.20;;;;;;;4.92;82.79;94204.25;5087193;28;20123;-46
2021/11/03 07:06:20;;;;;;;4.43;3.15;;;;;;;4.85;83.03;94201.38;5090834;28;20073;-46
2021/11/03 07:08:47;;;;;;;4.80;3.22;;;;;;;4.90;82.72;94203.81;5091195;28;20055;-46
2021/11/03 07:11:14;;;;;;;4.72;3.05;;;;;;;4.99;82.59;94206.34;5100941;22;20036;-52
2021/11/03 07:13:41;;;;;;;5.25;3.08;;;;;;;5.07;82.01;94197.41;5089545;28;20124;-52
2021/11/03 07:16:09;;;;;;;5.90;3.00;;;;;;;5.39;81.06;94202.88;5093852;28;20044;-50
2021/11/03 07:18:35;;;;;;;6.45;3.03;;;;;;;5.37;80.59;94203.22;5092832;28;20048;-49
2021/11/03 07:21:02;;;;;;;5.00;3.17;;;;;;;5.42;80.43;94196.06;5091709;28;20044;-50
2021/11/03 07:23:30;;;;;;;4.97;2.97;;;;;;;5.34;81.41;94203.91;5066452;28;20068;-50
2021/11/03 07:25:57;;;;;;;5.80;2.53;;;;;;;5.21;82.07;94194.34;5051907;28;20512;-49
2021/11/03 07:28:24;;;;;;;4.97;2.65;;;;;;;5.00;82.00;94202.56;5072141;28;20045;-50
2021/11/03 07:30:52;;;;;;;5.53;2.78;;;;;;;4.87;83.02;94198.34;5070790;28;20509;-51
2021/11/03 07:33:20;;;;;;;5.20;2.63;;;;;;;4.71;83.20;94200.94;5064480;28;20119;-50
2021/11/03 07:35:47;;;;;;;4.88;2.70;;;;;;;4.58;84.04;94199.38;5071997;28;20055;-51
2021/11/03 07:38:15;;;;;;;4.90;2.50;;;;;;;4.42;84.79;94193.94;5070562;28;20040;-49
2021/11/03 07:40:46;;;;;;;5.40;2.58;;;;;;;4.42;85.20;94196.63;5060531;28;20048;-51
2021/11/03 07:43:15;;;;;;;4.07;2.58;;;;;;;4.37;85.43;94196.84;5017055;28;20045;-49
2021/11/03 07:45:43;;;;;;;4.82;2.70;;;;;;;4.41;85.45;94189.69;5071985;28;20036;-51
2021/11/03 07:48:12;;;;;;;4.32;2.25;;;;;;;4.40;85.10;94185.44;5070893;28;20499;-52
2021/11/03 07:50:43;;;;;;;4.57;2.50;;;;;;;4.50;85.37;94168.16;5072393;28;20033;-53
2021/11/03 07:53:11;;;;;;;6.00;2.10;;;;;;;4.77;84.59;94167.44;5068034;28;20135;-50
2021/11/03 07:55:42;;;;;;;3.45;2.00;;;;;;;4.80;84.05;94169.44;5068019;28;20473;-49
2021/11/03 07:58:14;;;;;;;3.38;2.00;;;;;;;4.72;83.76;94172.25;5058219;28;20097;-54
2021/11/03 08:00:48;;;;;;;3.30;2.00;;;;;;;4.66;84.15;94174.38;5066938;28;20436;-53
2021/11/03 08:03:17;;;;;;;4.18;1.80;;;;;;;4.64;83.72;94174.69;5075914;28;20110;-53
2021/11/03 08:05:45;;;;;;;7.22;2.17;;;;;;;4.76;83.92;94171.22;5066956;28;20051;-53
2021/11/03 08:08:15;;;;;;;5.00;2.00;;;;;;;4.92;83.41;94166.72;5072556;28;20371;-53
2021/11/03 08:10:45;;;;;;;5.50;2.10;;;;;;;4.89;83.28;94164.72;5054557;28;20405;-54
2021/11/03 08:13:17;;;;;;;4.05;2.20;;;;;;;4.84;83.53;94183.75;5071413;28;20048;-53
2021/11/03 08:15:49;;;;;;;6.03;2.08;;;;;;;4.85;83.31;94184.50;5068766;28;20063;-53
2021/11/03 08:18:22;;;;;;;4.53;1.90;;;;;;;4.66;83.06;94182.41;5090493;28;20055;-52
2021/11/03 08:20:50;;;;;;;5.20;1.95;;;;;;;4.73;83.36;94177.25;5073265;28;20475;-54
2021/11/03 08:23:17;;;;;;;3.85;2.17;;;;;;;4.88;83.84;94171.22;5074381;28;20076;-52
2021/11/03 08:25:45;;;;;;;3.05;1.60;;;;;;;4.96;83.52;94166.06;5073827;28;20680;-54
2021/11/03 08:28:14;;;;;;;7.43;1.95;;;;;;;4.92;83.37;94163.28;5058309;28;20055;-54
2021/11/03 08:30:48;;;;;;;3.35;2.05;;;;;;;4.98;83.30;94171.88;5075887;28;20036;-54
2021/11/03 08:33:38;;;;;;;3.10;2.20;;;;;;;4.96;83.15;94174.88;5069164;28;20048;-53
2021/11/03 08:36:07;;;;;;;5.30;2.20;;;;;;;4.98;83.19;94169.19;5069246;28;20090;-52
2021/11/03 08:38:54;;;;;;;3.42;2.00;;;;;;;5.10;83.38;94163.78;5054833;28;20049;-49
2021/11/03 08:41:23;;;;;;;6.45;2.10;;;;;;;5.05;82.54;94172.06;5062310;28;20386;-53
2021/11/03 08:43:51;;;;;;;5.82;2.40;;;;;;;5.15;82.71;94171.59;5077134;28;20052;-54
2021/11/03 08:46:19;;;;;;;4.70;2.13;;;;;;;5.23;82.97;94165.31;5072234;28;20076;-54
2021/11/03 08:48:55;;;;;;;7.28;2.17;;;;;;;5.32;82.53;94149.84;5077969;28;20223;-50
2021/11/03 08:51:23;;;;;;;4.90;2.40;;;;;;;5.33;82.56;94156.78;5078316;28;20107;-51
2021/11/03 08:53:53;;;;;;;4.57;2.38;;;;;;;5.46;82.13;94154.81;5070576;28;20350;-49
2021/11/03 08:56:21;;;;;;;3.88;2.40;;;;;;;5.47;81.82;94142.19;5069406;28;20448;-48
2021/11/03 08:58:48;;;;;;;3.53;1.98;;;;;;;5.50;81.98;94144.97;5068630;28;20072;-52
2021/11/03 09:01:17;;;;;;;4.85;2.22;;;;;;;5.60;81.62;94141.00;5063344;28;20496;-51
2021/11/03 09:03:44;;;;;;;7.43;2.28;;;;;;;5.77;82.16;94140.66;5079504;28;20040;-52
2021/11/03 09:06:12;;;;;;;4.65;2.05;;;;;;;5.93;81.45;94139.94;5070765;28;20040;-50
2021/11/03 09:08:40;;;;;;;3.47;2.17;;;;;;;6.06;81.06;94136.03;5065755;28;20063;-51
2021/11/03 09:11:08;;;;;;;3.40;1.67;;;;;;;6.06;80.61;94134.13;5067422;28;20159;-50
2021/11/03 09:13:36;;;;;;;3.03;1.80;;;;;;;5.99;80.31;94136.63;5071189;28;20095;-53
2021/11/03 09:16:04;;;;;;;4.13;2.08;;;;;;;6.03;80.75;94128.66;5061909;28;20204;-48
2021/11/03 09:18:32;;;;;;;4.50;2.03;;;;;;;6.00;80.53;94118.63;5068830;28;20068;-50
2021/11/03 09:21:00;;;;;;;3.67;2.00;;;;;;;6.04;80.22;94124.84;5065849;28;20068;-52
2021/11/03 09:23:27;;;;;;;3.08;1.92;;;;;;;6.08;80.26;94117.69;5062326;28;20167;-47
2021/11/03 09:25:56;;;;;;;3.58;2.22;;;;;;;6.06;80.09;94112.63;5073163;28;20101;-52
2021/11/03 09:28:26;;;;;;;3.83;1.80;;;;;;;6.19;80.24;94109.88;5071249;28;20090;-47
2021/11/03 09:30:55;;;;;;;4.97;2.17;;;;;;;6.19;80.11;94091.06;5077554;28;20040;-49
2021/11/03 09:33:23;;;;;;;3.75;2.13;;;;;;;6.34;80.64;94090.28;5051715;28;20053;-51
2021/11/03 09:35:53;;;;;;;6.90;2.30;;;;;;;6.39;79.88;94092.66;5076625;28;20381;-50
2021/11/03 09:38:23;;;;;;;4.13;1.98;;;;;;;6.41;80.15;94093.09;5059305;28;20071;-50
2021/11/03 09:40:58;;;;;;;3.30;2.03;;;;;;;6.38;80.04;94090.34;5054918;28;20099;-50
2021/11/03 09:43:41;;;;;;;2.42;1.48;;;;;;;6.43;79.56;94092.75;5060620;28;20068;-48
2021/11/03 09:46:21;;;;;;;2.72;1.70;;;;;;;6.50;80.14;94076.78;5075786;28;20064;-49
2021/11/03 09:49:00;;;;;;;5.30;3.05;;;;;;;6.52;79.98;94082.59;5076893;28;20135;-51
2021/11/03 09:51:31;;;;;;;3.55;1.80;;;;;;;6.55;79.32;94084.56;5067253;28;20041;-47
2021/11/03 09:54:00;;;;;;;3.00;1.88;;;;;;;6.64;79.62;94092.44;5068422;28;20099;-48
2021/11/03 09:56:40;;;;;;;5.18;1.80;;;;;;;6.82;79.14;94082.81;5071007;28;20128;-48
2021/11/03 09:59:44;;;;;;;4.38;1.60;;;;;;;6.82;78.57;94085.50;5070029;28;20581;-50
2021/11/03 10:02:26;;;;;;;6.05;1.60;;;;;;;6.88;79.38;94088.69;5060694;28;20056;-49
2021/11/03 10:05:12;;;;;;;3.15;1.75;;;;;;;7.01;79.34;94080.13;5078790;28;20113;-51
2021/11/03 10:07:57;;;;;;;6.00;2.00;;;;;;;7.39;78.22;94069.72;5062094;28;20051;-53
2021/11/03 10:10:38;;;;;;;2.85;1.50;;;;;;;7.14;78.05;94083.47;5076873;28;20043;-52
2021/11/03 10:13:20;;;;;;;3.55;1.45;;;;;;;7.13;77.96;94081.13;5069052;28;20466;-51
2021/11/03 10:15:56;;;;;;;4.40;1.73;;;;;;;7.12;78.08;94074.97;5068435;28;20192;-50
2021/11/03 10:18:29;;;;;;;5.45;2.30;;;;;;;7.20;78.05;94071.28;5065631;28;20078;-50
2021/11/03 10:21:20;;;;;;;3.05;1.80;;;;;;;7.35;77.31;94071.56;5076146;28;20132;-50
2021/11/03 10:24:09;;;;;;;3.75;1.80;;;;;;;7.37;77.36;94072.75;5058671;28;20091;-54
2021/11/03 10:26:59;;;;;;;3.78;1.70;;;;;;;7.35;76.01;94071.56;5070084;28;20051;-53
2021/11/03 10:29:33;;;;;;;4.13;1.58;;;;;;;7.34;76.12;94053.84;5076254;28;20119;-51
2021/11/03 10:32:03;;;;;;;4.63;1.88;;;;;;;7.38;76.75;94058.16;5053256;28;20045;-50
2021/11/03 10:34:32;;;;;;;4.18;1.67;;;;;;;7.37;76.37;94053.13;5067741;28;20055;-54
2021/11/03 10:37:22;;;;;;;3.90;1.60;;;;;;;7.30;76.28;94044.94;5071967;28;20056;-52
2021/11/03 10:39:57;;;;;;;4.20;1.90;;;;;;;7.30;76.12;94042.25;5063590;28;20148;-51
2021/11/03 10:42:46;;;;;;;3.65;1.45;;;;;;;7.31;76.67;94035.72;5059012;28;20049;-53
2021/11/03 10:45:13;;;;;;;2.78;1.40;;;;;;;7.43;76.72;94039.03;5079685;28;20432;-54
2021/11/03 10:47:45;;;;;;;3.40;1.60;;;;;;;7.49;76.52;94036.81;5065670;28;20554;-51
2021/11/03 10:50:27;;;;;;;2.58;1.55;;;;;;;7.56;76.35;94038.84;5069309;28;20043;-49
2021/11/03 10:53:12;;;;;;;4.22;1.65;;;;;;;7.55;75.71;94038.09;5068310;28;20053;-50
2021/11/03 10:56:04;;;;;;;5.55;1.52;;;;;;;7.57;76.25;94049.28;5071999;28;20041;-51
2021/11/03 10:58:36;;;;;;;2.42;1.48;;;;;;;7.68;77.03;94047.53;5068157;28;20435;-51
2021/11/03 11:01:06;;;;;;;3.72;1.55;;;;;;;7.63;76.95;94036.28;5079999;28;20048;-52
2021/11/03 11:03:59;;;;;;;5.47;1.70;;;;;;;7.57;76.21;94037.72;5036723;28;20054;-50
2021/11/03 11:06:35;;;;;;;5.38;1.73;;;;;;;7.57;75.89;94035.03;5073666;28;20040;-52
2021/11/03 11:09:08;;;;;;;3.40;1.45;;;;;;;7.60;76.07;94050.44;5070580;28;20094;-51
2021/11/03 11:11:38;;;;;;;5.25;1.65;;;;;;;7.63;76.47;94045.13;5058859;28;20068;-52
2021/11/03 11:14:18;;;;;;;2.33;1.50;;;;;;;7.60;76.03;94045.84;5066530;28;20106;-52
2021/11/03 11:17:10;;;;;;;3.75;1.30;;;;;;;7.60;76.61;94035.06;5051061;28;20056;-52
2021/11/03 11:19:37;;;;;;;1.88;1.20;;;;;;;7.64;76.87;94044.00;5071394;28;20051;-53
2021/11/03 11:22:23;;;;;;;2.22;1.33;;;;;;;7.69;76.42;94035.63;5055642;28;20052;-49
2021/11/03 11:25:12;;;;;;;4.28;1.58;;;;;;;7.70;76.60;94023.72;5065868;28;20051;-49
2021/11/03 11:28:04;;;;;;;2.83;1.38;;;;;;;7.75;76.71;94013.78;5068889;28;20037;-48
2021/11/03 11:30:39;;;;;;;2.33;1.50;;;;;;;7.82;76.50;94000.44;5069921;28;20124;-53
2021/11/03 11:33:15;;;;;;;2.72;1.25;;;;;;;7.91;76.01;93987.50;5069711;28;20036;-52
2021/11/03 11:36:06;;;;;;;3.00;1.40;;;;;;;7.90;76.08;93989.41;5071452;28;20052;-52
2021/11/03 11:39:08;;;;;;;3.45;1.40;;;;;;;7.85;75.63;94007.78;5064750;28;20040;-53
2021/11/03 11:42:02;;;;;;;3.08;1.42;;;;;;;7.82;75.38;94005.81;5073677;28;20036;-50
2021/11/03 11:44:30;;;;;;;3.00;1.40;;;;;;;7.81;75.12;93999.66;5068145;28;20044;-50
2021/11/03 11:47:01;;;;;;;3.22;1.65;;;;;;;7.86;75.26;94002.03;5069373;28;20242;-51
2021/11/03 11:49:54;;;;;;;3.83;1.58;;;;;;;8.00;75.54;93984.56;5068750;28;20140;-49
2021/11/03 11:52:25;;;;;;;3.35;1.60;;;;;;;7.92;74.99;93984.44;5062518;28;20051;-52
2021/11/03 11:55:11;;;;;;;6.03;1.60;;;;;;;7.92;75.29;93989.03;5059373;28;20135;-54
2021/11/03 11:57:40;;;;;;;5.75;1.30;;;;;;;7.89;75.26;93985.16;5067358;28;20051;-52
2021/11/03 12:00:08;;;;;;;3.58;1.27;;;;;;;7.96;75.18;93984.47;5069476;28;20074;-53